sensor_id;sensor_type;location;lat;lon;timestamp;P1;durP1;ratioP1;P2;durP2;ratioP2
86114;SDS011;76768;49.464;10.882;2024-03-02T00:01:50;26.98;;;14.95;;
86114;SDS011;76768;49.464;10.882;2024-03-02T00:04:15;25.73;;;14.87;;
86114;SDS011;76768;49.464;10.882;2024-03-02T00:06:42;27.27;;;14.13;;
86114;SDS011;76768;49.464;10.882;2024-03-02T00:09:07;38.15;;;17.33;;
86114;SDS011;76768;49.464;10.882;2024-03-02T00:11:34;30.35;;;15.50;;
86114;SDS011;76768;49.464;10.882;2024-03-02T00:14:01;34.42;;;16.58;;
86114;SDS011;76768;49.464;10.882;2024-03-02T00:16:29;33.90;;;17.10;;
86114;SDS011;76768;49.464;10.882;2024-03-02T00:18:56;34.08;;;17.60;;
86114;SDS011;76768;49.464;10.882;2024-03-02T00:21:24;34.42;;;16.60;;
86114;SDS011;76768;49.464;10.882;2024-03-02T00:23:52;35.65;;;17.00;;
86114;SDS011;76768;49.464;10.882;2024-03-02T00:26:18;35.45;;;18.15;;
86114;SDS011;76768;49.464;10.882;2024-03-02T00:28:44;35.53;;;18.30;;
86114;SDS011;76768;49.464;10.882;2024-03-02T00:33:44;29.52;;;16.17;;
86114;SDS011;76768;49.464;10.882;2024-03-02T00:36:12;30.80;;;16.13;;
86114;SDS011;76768;49.464;10.882;2024-03-02T00:41:11;31.25;;;17.40;;
86114;SDS011;76768;49.464;10.882;2024-03-02T00:43:43;34.15;;;16.85;;
86114;SDS011;76768;49.464;10.882;2024-03-02T00:46:12;33.67;;;17.52;;
86114;SDS011;76768;49.464;10.882;2024-03-02T00:48:47;37.10;;;17.50;;
86114;SDS011;76768;49.464;10.882;2024-03-02T00:51:17;36.70;;;18.52;;
86114;SDS011;76768;49.464;10.882;2024-03-02T00:53:43;34.13;;;17.42;;
86114;SDS011;76768;49.464;10.882;2024-03-02T00:56:11;34.35;;;17.35;;
86114;SDS011;76768;49.464;10.882;2024-03-02T00:58:37;31.35;;;16.63;;
86114;SDS011;76768;49.464;10.882;2024-03-02T01:01:03;30.05;;;16.60;;
86114;SDS011;76768;49.464;10.882;2024-03-02T01:03:28;30.92;;;15.00;;
86114;SDS011;76768;49.464;10.882;2024-03-02T01:05:53;31.30;;;14.97;;
86114;SDS011;76768;49.464;10.882;2024-03-02T01:08:19;30.70;;;14.63;;
86114;SDS011;76768;49.464;10.882;2024-03-02T01:10:44;26.70;;;14.60;;
86114;SDS011;76768;49.464;10.882;2024-03-02T01:13:09;31.00;;;15.83;;
86114;SDS011;76768;49.464;10.882;2024-03-02T01:15:35;29.10;;;14.90;;
86114;SDS011;76768;49.464;10.882;2024-03-02T01:18:00;31.83;;;17.08;;
86114;SDS011;76768;49.464;10.882;2024-03-02T01:20:25;31.17;;;15.25;;
86114;SDS011;76768;49.464;10.882;2024-03-02T01:22:51;33.07;;;15.70;;
86114;SDS011;76768;49.464;10.882;2024-03-02T01:25:17;33.33;;;16.90;;
86114;SDS011;76768;49.464;10.882;2024-03-02T01:27:42;35.38;;;17.30;;
86114;SDS011;76768;49.464;10.882;2024-03-02T01:30:08;31.83;;;17.75;;
86114;SDS011;76768;49.464;10.882;2024-03-02T01:32:33;34.75;;;17.40;;
86114;SDS011;76768;49.464;10.882;2024-03-02T01:34:59;36.20;;;16.87;;
86114;SDS011;76768;49.464;10.882;2024-03-02T01:37:24;33.50;;;16.50;;
86114;SDS011;76768;49.464;10.882;2024-03-02T01:39:49;31.58;;;16.17;;
86114;SDS011;76768;49.464;10.882;2024-03-02T01:42:15;32.13;;;15.90;;
86114;SDS011;76768;49.464;10.882;2024-03-02T01:44:40;29.40;;;15.93;;
86114;SDS011;76768;49.464;10.882;2024-03-02T01:47:06;31.13;;;15.73;;
86114;SDS011;76768;49.464;10.882;2024-03-02T01:49:31;32.75;;;17.13;;
86114;SDS011;76768;49.464;10.882;2024-03-02T01:51:59;31.30;;;17.45;;
86114;SDS011;76768;49.464;10.882;2024-03-02T01:54:24;32.72;;;17.52;;
86114;SDS011;76768;49.464;10.882;2024-03-02T01:56:50;31.17;;;16.25;;
86114;SDS011;76768;49.464;10.882;2024-03-02T01:59:15;32.88;;;16.80;;
86114;SDS011;76768;49.464;10.882;2024-03-02T02:01:40;32.60;;;16.13;;
86114;SDS011;76768;49.464;10.882;2024-03-02T02:04:06;32.57;;;17.30;;
86114;SDS011;76768;49.464;10.882;2024-03-02T02:06:32;30.75;;;16.38;;
86114;SDS011;76768;49.464;10.882;2024-03-02T02:08:57;31.33;;;16.27;;
86114;SDS011;76768;49.464;10.882;2024-03-02T02:11:23;31.90;;;17.52;;
86114;SDS011;76768;49.464;10.882;2024-03-02T02:13:49;32.97;;;16.45;;
86114;SDS011;76768;49.464;10.882;2024-03-02T02:16:14;28.80;;;14.77;;
86114;SDS011;76768;49.464;10.882;2024-03-02T02:18:39;29.67;;;16.17;;
86114;SDS011;76768;49.464;10.882;2024-03-02T02:21:05;29.03;;;15.20;;
86114;SDS011;76768;49.464;10.882;2024-03-02T02:23:30;25.63;;;13.80;;
86114;SDS011;76768;49.464;10.882;2024-03-02T02:25:55;28.40;;;15.33;;
86114;SDS011;76768;49.464;10.882;2024-03-02T02:28:20;27.20;;;13.70;;
86114;SDS011;76768;49.464;10.882;2024-03-02T02:30:46;24.87;;;13.67;;
86114;SDS011;76768;49.464;10.882;2024-03-02T02:33:11;29.57;;;15.73;;
86114;SDS011;76768;49.464;10.882;2024-03-02T02:35:36;28.50;;;14.70;;
86114;SDS011;76768;49.464;10.882;2024-03-02T02:38:02;28.70;;;15.00;;
86114;SDS011;76768;49.464;10.882;2024-03-02T02:40:28;29.52;;;14.88;;
86114;SDS011;76768;49.464;10.882;2024-03-02T02:42:55;30.42;;;15.73;;
86114;SDS011;76768;49.464;10.882;2024-03-02T02:45:21;34.53;;;16.73;;
86114;SDS011;76768;49.464;10.882;2024-03-02T02:47:47;32.40;;;16.85;;
86114;SDS011;76768;49.464;10.882;2024-03-02T02:50:12;33.77;;;17.93;;
86114;SDS011;76768;49.464;10.882;2024-03-02T02:52:39;29.85;;;16.67;;
86114;SDS011;76768;49.464;10.882;2024-03-02T02:55:06;31.42;;;16.95;;
86114;SDS011;76768;49.464;10.882;2024-03-02T02:57:33;31.65;;;16.45;;
86114;SDS011;76768;49.464;10.882;2024-03-02T03:00:07;30.40;;;15.70;;
86114;SDS011;76768;49.464;10.882;2024-03-02T03:02:38;31.13;;;16.05;;
86114;SDS011;76768;49.464;10.882;2024-03-02T03:05:04;33.33;;;15.93;;
86114;SDS011;76768;49.464;10.882;2024-03-02T03:07:33;25.83;;;14.68;;
86114;SDS011;76768;49.464;10.882;2024-03-02T03:10:02;27.10;;;15.40;;
86114;SDS011;76768;49.464;10.882;2024-03-02T03:12:29;30.08;;;16.13;;
86114;SDS011;76768;49.464;10.882;2024-03-02T03:14:54;28.40;;;14.90;;
86114;SDS011;76768;49.464;10.882;2024-03-02T03:17:21;30.33;;;15.63;;
86114;SDS011;76768;49.464;10.882;2024-03-02T03:19:47;31.83;;;16.20;;
86114;SDS011;76768;49.464;10.882;2024-03-02T03:22:12;33.60;;;15.23;;
86114;SDS011;76768;49.464;10.882;2024-03-02T03:24:38;33.20;;;15.10;;
86114;SDS011;76768;49.464;10.882;2024-03-02T03:27:03;30.40;;;15.38;;
86114;SDS011;76768;49.464;10.882;2024-03-02T03:29:29;31.17;;;15.53;;
86114;SDS011;76768;49.464;10.882;2024-03-02T03:31:54;36.37;;;17.83;;
86114;SDS011;76768;49.464;10.882;2024-03-02T03:34:19;29.90;;;15.33;;
86114;SDS011;76768;49.464;10.882;2024-03-02T03:36:44;30.07;;;15.70;;
86114;SDS011;76768;49.464;10.882;2024-03-02T03:39:10;32.17;;;15.57;;
86114;SDS011;76768;49.464;10.882;2024-03-02T03:41:35;33.47;;;17.03;;
86114;SDS011;76768;49.464;10.882;2024-03-02T03:44:00;37.13;;;18.73;;
86114;SDS011;76768;49.464;10.882;2024-03-02T03:46:26;31.83;;;16.13;;
86114;SDS011;76768;49.464;10.882;2024-03-02T03:48:51;31.93;;;15.70;;
86114;SDS011;76768;49.464;10.882;2024-03-02T03:51:16;31.87;;;16.07;;
86114;SDS011;76768;49.464;10.882;2024-03-02T03:53:42;30.33;;;15.70;;
86114;SDS011;76768;49.464;10.882;2024-03-02T03:56:07;28.40;;;14.60;;
86114;SDS011;76768;49.464;10.882;2024-03-02T03:58:32;29.50;;;15.02;;
86114;SDS011;76768;49.464;10.882;2024-03-02T04:00:57;30.87;;;15.40;;
86114;SDS011;76768;49.464;10.882;2024-03-02T04:03:23;29.03;;;14.43;;
86114;SDS011;76768;49.464;10.882;2024-03-02T04:05:48;33.17;;;15.87;;
86114;SDS011;76768;49.464;10.882;2024-03-02T04:08:13;31.90;;;14.80;;
86114;SDS011;76768;49.464;10.882;2024-03-02T04:10:39;30.67;;;14.53;;
86114;SDS011;76768;49.464;10.882;2024-03-02T04:13:05;31.65;;;15.20;;
86114;SDS011;76768;49.464;10.882;2024-03-02T04:15:30;29.67;;;16.10;;
86114;SDS011;76768;49.464;10.882;2024-03-02T04:17:56;29.10;;;14.70;;
86114;SDS011;76768;49.464;10.882;2024-03-02T04:20:21;34.50;;;16.53;;
86114;SDS011;76768;49.464;10.882;2024-03-02T04:22:46;27.63;;;14.33;;
86114;SDS011;76768;49.464;10.882;2024-03-02T04:25:12;26.20;;;12.50;;
86114;SDS011;76768;49.464;10.882;2024-03-02T04:27:37;26.40;;;13.40;;
86114;SDS011;76768;49.464;10.882;2024-03-02T04:30:03;22.73;;;12.27;;
86114;SDS011;76768;49.464;10.882;2024-03-02T04:32:30;24.30;;;12.15;;
86114;SDS011;76768;49.464;10.882;2024-03-02T04:34:55;24.88;;;12.95;;
86114;SDS011;76768;49.464;10.882;2024-03-02T04:37:21;26.23;;;12.60;;
86114;SDS011;76768;49.464;10.882;2024-03-02T04:39:46;25.98;;;13.05;;
86114;SDS011;76768;49.464;10.882;2024-03-02T04:42:11;24.07;;;12.50;;
86114;SDS011;76768;49.464;10.882;2024-03-02T04:44:37;24.60;;;12.40;;
86114;SDS011;76768;49.464;10.882;2024-03-02T04:47:03;24.60;;;12.65;;
86114;SDS011;76768;49.464;10.882;2024-03-02T04:49:29;24.13;;;12.50;;
86114;SDS011;76768;49.464;10.882;2024-03-02T04:51:55;26.55;;;13.35;;
86114;SDS011;76768;49.464;10.882;2024-03-02T04:54:20;24.15;;;12.23;;
86114;SDS011;76768;49.464;10.882;2024-03-02T04:56:45;21.53;;;11.07;;
86114;SDS011;76768;49.464;10.882;2024-03-02T04:59:17;23.65;;;12.52;;
86114;SDS011;76768;49.464;10.882;2024-03-02T05:01:43;20.30;;;11.20;;
86114;SDS011;76768;49.464;10.882;2024-03-02T05:04:09;23.35;;;11.57;;
86114;SDS011;76768;49.464;10.882;2024-03-02T05:06:36;19.98;;;11.10;;
86114;SDS011;76768;49.464;10.882;2024-03-02T05:09:08;22.00;;;12.45;;
86114;SDS011;76768;49.464;10.882;2024-03-02T05:11:34;23.15;;;11.73;;
86114;SDS011;76768;49.464;10.882;2024-03-02T05:14:03;24.65;;;12.23;;
86114;SDS011;76768;49.464;10.882;2024-03-02T05:16:29;20.83;;;9.82;;
86114;SDS011;76768;49.464;10.882;2024-03-02T05:18:57;19.90;;;10.00;;
86114;SDS011;76768;49.464;10.882;2024-03-02T05:21:22;18.40;;;9.77;;
86114;SDS011;76768;49.464;10.882;2024-03-02T05:23:48;18.80;;;9.77;;
86114;SDS011;76768;49.464;10.882;2024-03-02T05:26:13;18.80;;;10.20;;
86114;SDS011;76768;49.464;10.882;2024-03-02T05:28:38;20.07;;;10.43;;
86114;SDS011;76768;49.464;10.882;2024-03-02T05:31:04;19.05;;;10.18;;
86114;SDS011;76768;49.464;10.882;2024-03-02T05:33:29;22.13;;;10.93;;
86114;SDS011;76768;49.464;10.882;2024-03-02T05:35:56;19.70;;;9.63;;
86114;SDS011;76768;49.464;10.882;2024-03-02T05:38:21;20.02;;;9.85;;
86114;SDS011;76768;49.464;10.882;2024-03-02T05:40:47;20.42;;;10.05;;
86114;SDS011;76768;49.464;10.882;2024-03-02T05:43:12;18.92;;;10.65;;
86114;SDS011;76768;49.464;10.882;2024-03-02T05:45:38;18.25;;;9.77;;
86114;SDS011;76768;49.464;10.882;2024-03-02T05:48:04;17.90;;;9.40;;
86114;SDS011;76768;49.464;10.882;2024-03-02T05:50:31;20.83;;;10.60;;
86114;SDS011;76768;49.464;10.882;2024-03-02T05:52:56;21.60;;;11.13;;
86114;SDS011;76768;49.464;10.882;2024-03-02T05:55:22;21.27;;;10.32;;
86114;SDS011;76768;49.464;10.882;2024-03-02T05:57:47;19.98;;;10.45;;
86114;SDS011;76768;49.464;10.882;2024-03-02T06:00:20;20.85;;;10.25;;
86114;SDS011;76768;49.464;10.882;2024-03-02T06:02:45;19.33;;;9.48;;
86114;SDS011;76768;49.464;10.882;2024-03-02T06:05:11;17.83;;;9.53;;
86114;SDS011;76768;49.464;10.882;2024-03-02T06:07:36;20.27;;;10.27;;
86114;SDS011;76768;49.464;10.882;2024-03-02T06:10:01;23.07;;;10.77;;
86114;SDS011;76768;49.464;10.882;2024-03-02T06:12:27;19.40;;;10.43;;
86114;SDS011;76768;49.464;10.882;2024-03-02T06:14:52;17.90;;;9.40;;
86114;SDS011;76768;49.464;10.882;2024-03-02T06:17:18;21.67;;;11.30;;
86114;SDS011;76768;49.464;10.882;2024-03-02T06:19:44;21.23;;;10.02;;
86114;SDS011;76768;49.464;10.882;2024-03-02T06:22:09;18.90;;;8.87;;
86114;SDS011;76768;49.464;10.882;2024-03-02T06:24:35;17.77;;;9.30;;
86114;SDS011;76768;49.464;10.882;2024-03-02T06:27:01;21.23;;;10.38;;
86114;SDS011;76768;49.464;10.882;2024-03-02T06:29:26;18.80;;;10.03;;
86114;SDS011;76768;49.464;10.882;2024-03-02T06:31:51;18.30;;;10.27;;
86114;SDS011;76768;49.464;10.882;2024-03-02T06:34:17;19.63;;;9.97;;
86114;SDS011;76768;49.464;10.882;2024-03-02T06:36:42;19.77;;;9.50;;
86114;SDS011;76768;49.464;10.882;2024-03-02T06:39:07;20.33;;;9.77;;
86114;SDS011;76768;49.464;10.882;2024-03-02T06:41:33;18.73;;;9.67;;
86114;SDS011;76768;49.464;10.882;2024-03-02T06:43:58;20.08;;;10.23;;
86114;SDS011;76768;49.464;10.882;2024-03-02T06:46:27;22.33;;;11.45;;
86114;SDS011;76768;49.464;10.882;2024-03-02T06:48:52;19.67;;;9.60;;
86114;SDS011;76768;49.464;10.882;2024-03-02T06:51:17;18.07;;;9.97;;
86114;SDS011;76768;49.464;10.882;2024-03-02T06:53:42;16.03;;;8.60;;
86114;SDS011;76768;49.464;10.882;2024-03-02T06:56:08;16.07;;;9.57;;
86114;SDS011;76768;49.464;10.882;2024-03-02T06:58:34;20.38;;;11.85;;
86114;SDS011;76768;49.464;10.882;2024-03-02T07:00:59;17.30;;;9.57;;
86114;SDS011;76768;49.464;10.882;2024-03-02T07:03:27;17.67;;;10.07;;
86114;SDS011;76768;49.464;10.882;2024-03-02T07:05:52;18.50;;;10.23;;
86114;SDS011;76768;49.464;10.882;2024-03-02T07:08:18;21.03;;;10.27;;
86114;SDS011;76768;49.464;10.882;2024-03-02T07:10:43;19.03;;;9.63;;
86114;SDS011;76768;49.464;10.882;2024-03-02T07:13:08;17.27;;;8.97;;
86114;SDS011;76768;49.464;10.882;2024-03-02T07:15:34;19.45;;;9.52;;
86114;SDS011;76768;49.464;10.882;2024-03-02T07:18:15;18.00;;;10.05;;
86114;SDS011;76768;49.464;10.882;2024-03-02T07:20:40;19.30;;;9.57;;
86114;SDS011;76768;49.464;10.882;2024-03-02T07:23:06;20.50;;;9.97;;
86114;SDS011;76768;49.464;10.882;2024-03-02T07:25:31;20.90;;;9.82;;
86114;SDS011;76768;49.464;10.882;2024-03-02T07:27:56;17.27;;;9.20;;
86114;SDS011;76768;49.464;10.882;2024-03-02T07:30:22;19.05;;;10.45;;
86114;SDS011;76768;49.464;10.882;2024-03-02T07:32:49;18.37;;;9.73;;
86114;SDS011;76768;49.464;10.882;2024-03-02T07:35:15;18.30;;;9.30;;
86114;SDS011;76768;49.464;10.882;2024-03-02T07:37:41;30.43;;;15.83;;
86114;SDS011;76768;49.464;10.882;2024-03-02T07:40:07;18.20;;;10.68;;
86114;SDS011;76768;49.464;10.882;2024-03-02T07:42:36;16.17;;;9.00;;
86114;SDS011;76768;49.464;10.882;2024-03-02T07:45:02;19.55;;;11.85;;
86114;SDS011;76768;49.464;10.882;2024-03-02T07:47:27;21.50;;;12.18;;
86114;SDS011;76768;49.464;10.882;2024-03-02T07:49:53;18.93;;;10.87;;
86114;SDS011;76768;49.464;10.882;2024-03-02T07:52:18;24.10;;;14.83;;
86114;SDS011;76768;49.464;10.882;2024-03-02T07:54:43;18.93;;;10.90;;
86114;SDS011;76768;49.464;10.882;2024-03-02T07:57:09;20.93;;;12.77;;
86114;SDS011;76768;49.464;10.882;2024-03-02T07:59:35;19.05;;;11.30;;
86114;SDS011;76768;49.464;10.882;2024-03-02T08:02:01;19.35;;;10.85;;
86114;SDS011;76768;49.464;10.882;2024-03-02T08:04:27;19.60;;;10.20;;
86114;SDS011;76768;49.464;10.882;2024-03-02T08:06:52;17.67;;;11.30;;
86114;SDS011;76768;49.464;10.882;2024-03-02T08:09:17;20.98;;;10.95;;
86114;SDS011;76768;49.464;10.882;2024-03-02T08:11:43;18.23;;;10.37;;
86114;SDS011;76768;49.464;10.882;2024-03-02T08:14:08;18.30;;;9.77;;
86114;SDS011;76768;49.464;10.882;2024-03-02T08:16:33;15.93;;;8.93;;
86114;SDS011;76768;49.464;10.882;2024-03-02T08:18:59;16.07;;;9.00;;
86114;SDS011;76768;49.464;10.882;2024-03-02T08:21:24;14.15;;;7.85;;
86114;SDS011;76768;49.464;10.882;2024-03-02T08:23:50;11.30;;;5.88;;
86114;SDS011;76768;49.464;10.882;2024-03-02T08:26:16;13.70;;;7.20;;
86114;SDS011;76768;49.464;10.882;2024-03-02T08:28:41;14.55;;;7.78;;
86114;SDS011;76768;49.464;10.882;2024-03-02T08:31:07;12.88;;;7.13;;
86114;SDS011;76768;49.464;10.882;2024-03-02T08:33:32;14.45;;;7.70;;
86114;SDS011;76768;49.464;10.882;2024-03-02T08:35:58;12.52;;;7.03;;
86114;SDS011;76768;49.464;10.882;2024-03-02T08:38:24;14.85;;;8.18;;
86114;SDS011;76768;49.464;10.882;2024-03-02T08:40:50;12.77;;;7.63;;
86114;SDS011;76768;49.464;10.882;2024-03-02T08:43:15;13.93;;;7.55;;
86114;SDS011;76768;49.464;10.882;2024-03-02T08:45:40;12.20;;;6.95;;
86114;SDS011;76768;49.464;10.882;2024-03-02T08:48:09;12.02;;;7.10;;
86114;SDS011;76768;49.464;10.882;2024-03-02T08:50:35;13.13;;;7.50;;
86114;SDS011;76768;49.464;10.882;2024-03-02T08:53:01;12.13;;;7.65;;
86114;SDS011;76768;49.464;10.882;2024-03-02T08:55:28;14.15;;;7.85;;
86114;SDS011;76768;49.464;10.882;2024-03-02T08:57:54;11.65;;;6.57;;
86114;SDS011;76768;49.464;10.882;2024-03-02T09:00:20;13.52;;;7.07;;
86114;SDS011;76768;49.464;10.882;2024-03-02T09:02:45;13.60;;;8.43;;
86114;SDS011;76768;49.464;10.882;2024-03-02T09:05:11;12.20;;;6.45;;
86114;SDS011;76768;49.464;10.882;2024-03-02T09:07:36;13.95;;;7.75;;
86114;SDS011;76768;49.464;10.882;2024-03-02T09:10:03;13.68;;;7.78;;
86114;SDS011;76768;49.464;10.882;2024-03-02T09:12:30;5.05;;;3.20;;
86114;SDS011;76768;49.464;10.882;2024-03-02T09:14:56;11.18;;;6.10;;
86114;SDS011;76768;49.464;10.882;2024-03-02T09:17:22;16.17;;;8.95;;
86114;SDS011;76768;49.464;10.882;2024-03-02T09:19:48;13.07;;;7.03;;
86114;SDS011;76768;49.464;10.882;2024-03-02T09:22:13;16.00;;;7.65;;
86114;SDS011;76768;49.464;10.882;2024-03-02T09:24:38;14.77;;;8.23;;
86114;SDS011;76768;49.464;10.882;2024-03-02T09:27:04;14.10;;;8.20;;
86114;SDS011;76768;49.464;10.882;2024-03-02T09:29:29;14.48;;;8.20;;
86114;SDS011;76768;49.464;10.882;2024-03-02T09:31:54;14.37;;;7.97;;
86114;SDS011;76768;49.464;10.882;2024-03-02T09:34:20;12.55;;;7.82;;
86114;SDS011;76768;49.464;10.882;2024-03-02T09:36:46;11.48;;;7.15;;
86114;SDS011;76768;49.464;10.882;2024-03-02T09:39:11;11.95;;;6.88;;
86114;SDS011;76768;49.464;10.882;2024-03-02T09:41:37;11.18;;;5.95;;
86114;SDS011;76768;49.464;10.882;2024-03-02T09:44:03;11.75;;;6.80;;
86114;SDS011;76768;49.464;10.882;2024-03-02T09:46:29;9.02;;;4.80;;
86114;SDS011;76768;49.464;10.882;2024-03-02T09:48:54;11.23;;;6.93;;
86114;SDS011;76768;49.464;10.882;2024-03-02T09:51:20;14.38;;;9.93;;
86114;SDS011;76768;49.464;10.882;2024-03-02T09:53:45;13.20;;;8.40;;
86114;SDS011;76768;49.464;10.882;2024-03-02T09:56:12;12.07;;;6.75;;
86114;SDS011;76768;49.464;10.882;2024-03-02T09:58:38;9.88;;;5.55;;
86114;SDS011;76768;49.464;10.882;2024-03-02T10:01:05;11.60;;;7.13;;
86114;SDS011;76768;49.464;10.882;2024-03-02T10:03:31;12.55;;;7.03;;
86114;SDS011;76768;49.464;10.882;2024-03-02T10:06:18;12.52;;;7.57;;
86114;SDS011;76768;49.464;10.882;2024-03-02T10:08:47;12.88;;;7.68;;
86114;SDS011;76768;49.464;10.882;2024-03-02T10:11:36;12.20;;;7.82;;
86114;SDS011;76768;49.464;10.882;2024-03-02T10:14:12;11.73;;;7.65;;
86114;SDS011;76768;49.464;10.882;2024-03-02T10:16:42;11.52;;;7.03;;
86114;SDS011;76768;49.464;10.882;2024-03-02T10:19:21;11.45;;;6.20;;
86114;SDS011;76768;49.464;10.882;2024-03-02T10:21:51;12.27;;;6.90;;
86114;SDS011;76768;49.464;10.882;2024-03-02T10:24:18;19.15;;;11.10;;
86114;SDS011;76768;49.464;10.882;2024-03-02T10:26:44;7.75;;;4.43;;
86114;SDS011;76768;49.464;10.882;2024-03-02T10:29:09;10.30;;;5.70;;
86114;SDS011;76768;49.464;10.882;2024-03-02T10:31:36;10.02;;;5.40;;
86114;SDS011;76768;49.464;10.882;2024-03-02T10:34:06;10.27;;;6.38;;
86114;SDS011;76768;49.464;10.882;2024-03-02T10:36:35;11.82;;;7.05;;
86114;SDS011;76768;49.464;10.882;2024-03-02T10:39:02;10.38;;;6.15;;
86114;SDS011;76768;49.464;10.882;2024-03-02T10:41:34;12.63;;;7.43;;
86114;SDS011;76768;49.464;10.882;2024-03-02T10:44:05;13.50;;;8.55;;
86114;SDS011;76768;49.464;10.882;2024-03-02T10:46:35;10.05;;;6.60;;
86114;SDS011;76768;49.464;10.882;2024-03-02T10:49:02;12.18;;;8.07;;
86114;SDS011;76768;49.464;10.882;2024-03-02T10:51:29;11.63;;;7.20;;
86114;SDS011;76768;49.464;10.882;2024-03-02T10:53:59;12.85;;;7.60;;
86114;SDS011;76768;49.464;10.882;2024-03-02T10:56:32;13.55;;;6.85;;
86114;SDS011;76768;49.464;10.882;2024-03-02T10:59:02;11.25;;;6.65;;
86114;SDS011;76768;49.464;10.882;2024-03-02T11:01:31;13.20;;;7.25;;
86114;SDS011;76768;49.464;10.882;2024-03-02T11:03:58;11.73;;;7.65;;
86114;SDS011;76768;49.464;10.882;2024-03-02T11:06:23;11.68;;;7.47;;
86114;SDS011;76768;49.464;10.882;2024-03-02T11:08:53;13.38;;;7.38;;
86114;SDS011;76768;49.464;10.882;2024-03-02T11:11:26;14.30;;;7.32;;
86114;SDS011;76768;49.464;10.882;2024-03-02T11:13:54;13.63;;;7.45;;
86114;SDS011;76768;49.464;10.882;2024-03-02T11:19:04;11.43;;;6.80;;
86114;SDS011;76768;49.464;10.882;2024-03-02T11:21:32;10.73;;;6.75;;
86114;SDS011;76768;49.464;10.882;2024-03-02T11:23:59;11.95;;;6.50;;
86114;SDS011;76768;49.464;10.882;2024-03-02T11:26:24;11.20;;;6.50;;
86114;SDS011;76768;49.464;10.882;2024-03-02T11:28:50;9.57;;;5.35;;
86114;SDS011;76768;49.464;10.882;2024-03-02T11:31:16;9.70;;;5.22;;
86114;SDS011;76768;49.464;10.882;2024-03-02T11:33:41;8.57;;;5.97;;
86114;SDS011;76768;49.464;10.882;2024-03-02T11:36:08;9.25;;;6.25;;
86114;SDS011;76768;49.464;10.882;2024-03-02T11:38:34;9.38;;;6.00;;
86114;SDS011;76768;49.464;10.882;2024-03-02T11:41:00;8.70;;;5.25;;
86114;SDS011;76768;49.464;10.882;2024-03-02T11:43:27;8.90;;;5.28;;
86114;SDS011;76768;49.464;10.882;2024-03-02T11:45:56;8.05;;;5.68;;
86114;SDS011;76768;49.464;10.882;2024-03-02T11:48:26;8.02;;;5.57;;
86114;SDS011;76768;49.464;10.882;2024-03-02T11:50:51;9.30;;;5.63;;
86114;SDS011;76768;49.464;10.882;2024-03-02T11:53:17;9.52;;;6.45;;
86114;SDS011;76768;49.464;10.882;2024-03-02T11:55:44;9.82;;;5.90;;
86114;SDS011;76768;49.464;10.882;2024-03-02T11:58:11;12.13;;;7.63;;
86114;SDS011;76768;49.464;10.882;2024-03-02T12:00:37;10.57;;;6.63;;
86114;SDS011;76768;49.464;10.882;2024-03-02T12:03:06;11.82;;;7.97;;
86114;SDS011;76768;49.464;10.882;2024-03-02T12:05:33;12.10;;;8.52;;
86114;SDS011;76768;49.464;10.882;2024-03-02T12:08:00;14.27;;;8.07;;
86114;SDS011;76768;49.464;10.882;2024-03-02T12:10:27;12.35;;;8.50;;
86114;SDS011;76768;49.464;10.882;2024-03-02T12:12:59;12.80;;;7.28;;
86114;SDS011;76768;49.464;10.882;2024-03-02T12:15:25;13.95;;;9.20;;
86114;SDS011;76768;49.464;10.882;2024-03-02T12:17:53;12.75;;;7.68;;
86114;SDS011;76768;49.464;10.882;2024-03-02T12:20:21;13.65;;;9.27;;
86114;SDS011;76768;49.464;10.882;2024-03-02T12:22:48;13.43;;;9.52;;
86114;SDS011;76768;49.464;10.882;2024-03-02T12:25:18;11.75;;;7.38;;
86114;SDS011;76768;49.464;10.882;2024-03-02T12:27:47;13.98;;;7.95;;
86114;SDS011;76768;49.464;10.882;2024-03-02T12:30:18;16.35;;;9.13;;
86114;SDS011;76768;49.464;10.882;2024-03-02T12:32:44;13.90;;;9.88;;
86114;SDS011;76768;49.464;10.882;2024-03-02T12:35:10;14.35;;;10.57;;
86114;SDS011;76768;49.464;10.882;2024-03-02T12:37:46;15.23;;;10.98;;
86114;SDS011;76768;49.464;10.882;2024-03-02T12:40:13;12.85;;;9.27;;
86114;SDS011;76768;49.464;10.882;2024-03-02T12:42:40;12.05;;;7.50;;
86114;SDS011;76768;49.464;10.882;2024-03-02T12:45:06;13.55;;;8.88;;
86114;SDS011;76768;49.464;10.882;2024-03-02T12:47:36;15.80;;;10.70;;
86114;SDS011;76768;49.464;10.882;2024-03-02T12:50:02;13.35;;;8.68;;
86114;SDS011;76768;49.464;10.882;2024-03-02T12:52:28;16.25;;;10.55;;
86114;SDS011;76768;49.464;10.882;2024-03-02T12:54:56;16.52;;;11.48;;
86114;SDS011;76768;49.464;10.882;2024-03-02T12:57:25;14.68;;;8.32;;
86114;SDS011;76768;49.464;10.882;2024-03-02T13:00:04;14.80;;;10.15;;
86114;SDS011;76768;49.464;10.882;2024-03-02T13:05:04;13.45;;;9.00;;
86114;SDS011;76768;49.464;10.882;2024-03-02T13:07:31;18.50;;;12.48;;
86114;SDS011;76768;49.464;10.882;2024-03-02T13:09:58;17.83;;;10.35;;
86114;SDS011;76768;49.464;10.882;2024-03-02T13:12:24;19.40;;;12.60;;
86114;SDS011;76768;49.464;10.882;2024-03-02T13:14:53;17.77;;;11.45;;
86114;SDS011;76768;49.464;10.882;2024-03-02T13:17:18;19.48;;;12.02;;
86114;SDS011;76768;49.464;10.882;2024-03-02T13:19:51;22.05;;;12.82;;
86114;SDS011;76768;49.464;10.882;2024-03-02T13:22:23;15.18;;;8.35;;
86114;SDS011;76768;49.464;10.882;2024-03-02T13:24:51;20.73;;;13.32;;
86114;SDS011;76768;49.464;10.882;2024-03-02T13:27:20;19.35;;;10.52;;
86114;SDS011;76768;49.464;10.882;2024-03-02T13:29:46;19.00;;;12.57;;
86114;SDS011;76768;49.464;10.882;2024-03-02T13:32:15;17.80;;;10.73;;
86114;SDS011;76768;49.464;10.882;2024-03-02T13:34:41;18.98;;;11.63;;
86114;SDS011;76768;49.464;10.882;2024-03-02T13:37:06;21.73;;;14.25;;
86114;SDS011;76768;49.464;10.882;2024-03-02T13:39:32;21.55;;;12.88;;
86114;SDS011;76768;49.464;10.882;2024-03-02T13:42:00;20.50;;;11.88;;
86114;SDS011;76768;49.464;10.882;2024-03-02T13:44:30;17.98;;;11.18;;
86114;SDS011;76768;49.464;10.882;2024-03-02T13:46:56;19.15;;;11.93;;
86114;SDS011;76768;49.464;10.882;2024-03-02T13:49:23;17.20;;;11.10;;
86114;SDS011;76768;49.464;10.882;2024-03-02T13:51:48;17.05;;;9.77;;
86114;SDS011;76768;49.464;10.882;2024-03-02T13:54:14;18.42;;;10.27;;
86114;SDS011;76768;49.464;10.882;2024-03-02T13:56:39;18.42;;;12.15;;
86114;SDS011;76768;49.464;10.882;2024-03-02T13:59:06;14.93;;;9.75;;
86114;SDS011;76768;49.464;10.882;2024-03-02T14:01:32;18.15;;;11.45;;
86114;SDS011;76768;49.464;10.882;2024-03-02T14:03:57;16.70;;;10.45;;
86114;SDS011;76768;49.464;10.882;2024-03-02T14:06:23;22.08;;;11.02;;
86114;SDS011;76768;49.464;10.882;2024-03-02T14:08:48;18.08;;;11.52;;
86114;SDS011;76768;49.464;10.882;2024-03-02T14:11:14;18.45;;;11.90;;
86114;SDS011;76768;49.464;10.882;2024-03-02T14:13:41;18.20;;;11.40;;
86114;SDS011;76768;49.464;10.882;2024-03-02T14:16:06;16.60;;;9.95;;
86114;SDS011;76768;49.464;10.882;2024-03-02T14:18:32;18.13;;;11.50;;
86114;SDS011;76768;49.464;10.882;2024-03-02T14:20:57;19.25;;;11.40;;